createdAt,value
2022-09-27T00:01:35.511Z,96695.16
2022-09-27T00:04:02.763Z,96696.69
2022-09-27T00:06:31.286Z,96702.94
2022-09-27T00:08:58.706Z,96694.13
2022-09-27T00:11:27.135Z,96700.56
2022-09-27T00:13:55.661Z,96701.81
2022-09-27T00:16:24.902Z,96701.16
2022-09-27T00:18:51.799Z,96704.72
2022-09-27T00:21:18.536Z,96704.66
2022-09-27T00:23:45.628Z,96714.16
2022-09-27T00:26:14.075Z,96716.28
2022-09-27T00:28:41.325Z,96708.00
2022-09-27T00:31:20.949Z,96714.69
2022-09-27T00:33:49.527Z,96709.69
2022-09-27T00:36:16.564Z,96712.84
2022-09-27T00:38:44.001Z,96715.84
2022-09-27T00:41:20.577Z,96719.88
2022-09-27T00:44:02.444Z,96720.31
2022-09-27T00:46:38.335Z,96721.41
2022-09-27T00:49:11.315Z,96718.25
2022-09-27T00:51:40.327Z,96723.38
2022-09-27T00:54:09.791Z,96724.25
2022-09-27T00:56:37.464Z,96731.25
2022-09-27T00:59:20.074Z,96726.03
2022-09-27T01:01:47.476Z,96731.75
2022-09-27T01:04:18.270Z,96731.94
2022-09-27T01:06:45.098Z,96723.47
2022-09-27T01:09:12.392Z,96727.22
2022-09-27T01:11:54.738Z,96729.03
2022-09-27T01:14:39.724Z,96726.97
2022-09-27T01:17:06.418Z,96723.38
2022-09-27T01:20:01.034Z,96727.97
2022-09-27T01:22:37.145Z,96732.09
2022-09-27T01:25:21.907Z,96725.94
2022-09-27T01:28:18.098Z,96738.59
2022-09-27T01:30:56.057Z,96736.09
2022-09-27T01:33:38.693Z,96743.38
2022-09-27T01:36:08.363Z,96736.88
2022-09-27T01:38:52.580Z,96742.34
2022-09-27T01:41:22.901Z,96736.91
2022-09-27T01:44:14.584Z,96743.69
2022-09-27T01:46:53.416Z,96743.13
2022-09-27T01:49:45.403Z,96748.59
2022-09-27T01:52:14.465Z,96746.13
2022-09-27T01:54:46.090Z,96755.75
2022-09-27T01:57:30.245Z,96759.50
2022-09-27T02:00:02.105Z,96750.84
2022-09-27T02:02:57.101Z,96766.25
2022-09-27T02:05:36.105Z,96758.13
2022-09-27T02:08:42.472Z,96767.31
2022-09-27T02:11:19.431Z,96759.84
2022-09-27T02:14:18.813Z,96770.16
2022-09-27T02:16:51.687Z,96774.69
2022-09-27T02:19:34.861Z,96777.16
2022-09-27T02:22:23.954Z,96785.03
2022-09-27T02:25:34.204Z,96775.56
2022-09-27T02:28:25.921Z,96783.56
2022-09-27T02:30:52.972Z,96785.63
2022-09-27T02:33:45.218Z,96788.09
2022-09-27T02:36:12.416Z,96797.31
2022-09-27T02:38:39.944Z,96798.00
2022-09-27T02:41:15.221Z,96804.69
2022-09-27T02:43:44.619Z,96797.38
2022-09-27T02:46:26.005Z,96805.72
2022-09-27T02:49:10.657Z,96801.19
2022-09-27T02:52:11.550Z,96803.75
2022-09-27T02:55:10.776Z,96804.09
2022-09-27T02:58:23.780Z,96804.78
2022-09-27T03:01:25.969Z,96817.25
2022-09-27T03:04:35.556Z,96822.69
2022-09-27T03:07:03.129Z,96828.63
2022-09-27T03:09:49.052Z,96830.31
2022-09-27T03:12:25.729Z,96823.63
2022-09-27T03:14:57.793Z,96822.47
2022-09-27T03:17:50.764Z,96831.09
2022-09-27T03:20:36.225Z,96836.16
2022-09-27T03:23:17.119Z,96840.53
2022-09-27T03:25:43.942Z,96837.94
2022-09-27T03:28:13.491Z,96849.19
2022-09-27T03:30:42.542Z,96846.06
2022-09-27T03:33:10.600Z,96843.81
2022-09-27T03:35:43.075Z,96846.25
2022-09-27T03:38:10.955Z,96843.66
2022-09-27T03:40:38.451Z,96840.72
2022-09-27T03:43:06.506Z,96840.78
2022-09-27T03:45:33.730Z,96843.28
2022-09-27T03:48:04.513Z,96845.72
2022-09-27T03:50:31.362Z,96841.34
2022-09-27T03:52:58.117Z,96841.94
2022-09-27T03:55:26.044Z,96852.06
2022-09-27T03:57:53.459Z,96848.81
2022-09-27T04:00:21.103Z,96849.81
2022-09-27T04:02:47.945Z,96845.69
2022-09-27T04:05:25.808Z,96853.78
2022-09-27T04:07:57.164Z,96856.22
2022-09-27T04:10:24.872Z,96849.75
2022-09-27T04:12:51.993Z,96860.16
2022-09-27T04:15:21.347Z,96856.28
2022-09-27T04:18:08.509Z,96864.41
2022-09-27T04:20:36.686Z,96857.53
2022-09-27T04:23:14.502Z,96859.88
2022-09-27T04:25:48.623Z,96856.53
2022-09-27T04:28:21.022Z,96857.06
2022-09-27T04:30:48.620Z,96862.59
2022-09-27T04:33:33.622Z,96867.66
2022-09-27T04:36:26.373Z,96869.94
2022-09-27T04:39:12.156Z,96872.00
2022-09-27T04:41:42.283Z,96870.91
2022-09-27T04:44:09.217Z,96873.28
2022-09-27T04:46:36.057Z,96866.13
2022-09-27T04:49:03.481Z,96872.00
2022-09-27T04:51:32.615Z,96871.53
2022-09-27T04:54:00.175Z,96868.03
2022-09-27T04:56:29.819Z,96872.00
2022-09-27T04:58:56.659Z,96878.53
2022-09-27T05:01:23.544Z,96886.38
2022-09-27T05:03:53.086Z,96895.72
2022-09-27T05:06:20.043Z,96901.25
2022-09-27T05:08:46.775Z,96904.19
2022-09-27T05:11:26.857Z,96902.34
2022-09-27T05:14:14.067Z,96918.59
2022-09-27T05:16:50.894Z,96907.91
2022-09-27T05:19:27.500Z,96916.34
2022-09-27T05:22:06.643Z,96921.09
2022-09-27T05:24:33.848Z,96922.25
2022-09-27T05:27:01.930Z,96922.81
2022-09-27T05:29:29.141Z,96925.34
2022-09-27T05:32:05.947Z,96933.44
2022-09-27T05:34:32.772Z,96927.72
2022-09-27T05:37:00.047Z,96936.44
2022-09-27T05:39:29.554Z,96937.03
2022-09-27T05:41:57.493Z,96934.00
2022-09-27T05:44:25.957Z,96939.66
2022-09-27T05:47:01.890Z,96942.59
2022-09-27T05:49:28.788Z,96939.38
2022-09-27T05:51:55.642Z,96942.59
2022-09-27T05:54:23.972Z,96942.03
2022-09-27T05:56:54.678Z,96942.22
2022-09-27T05:59:32.473Z,96944.38
2022-09-27T06:02:18.412Z,96942.22
2022-09-27T06:05:25.333Z,96941.56
2022-09-27T06:08:03.521Z,96951.56
2022-09-27T06:10:36.339Z,96941.41
2022-09-27T06:13:12.537Z,96945.63
2022-09-27T06:15:44.704Z,96942.91
2022-09-27T06:18:17.915Z,96946.06
2022-09-27T06:20:47.521Z,96953.69
2022-09-27T06:23:18.269Z,96949.72
2022-09-27T06:25:47.005Z,96951.31
2022-09-27T06:28:20.886Z,96948.25
2022-09-27T06:30:50.732Z,96955.41
2022-09-27T06:33:29.284Z,96958.06
2022-09-27T06:36:01.796Z,96955.97
2022-09-27T06:38:29.410Z,96954.41
2022-09-27T06:41:19.299Z,96959.84
2022-09-27T06:43:56.369Z,96956.25
2022-09-27T06:46:35.235Z,96958.59
2022-09-27T06:49:22.798Z,96965.59
2022-09-27T06:51:49.538Z,96959.91
2022-09-27T06:54:16.649Z,96964.22
2022-09-27T06:56:43.724Z,96967.78
2022-09-27T06:59:28.976Z,96970.91
2022-09-27T07:02:04.926Z,96965.59
2022-09-27T07:04:58.938Z,96968.19
2022-09-27T07:07:44.441Z,96977.94
2022-09-27T07:10:11.946Z,96974.41
2022-09-27T07:12:39.109Z,96975.44
2022-09-27T07:15:06.412Z,96980.75
2022-09-27T07:17:37.329Z,96982.00
2022-09-27T07:20:05.270Z,96986.28
2022-09-27T07:22:32.120Z,96987.88
2022-09-27T07:25:02.181Z,96984.78
2022-09-27T07:27:29.086Z,96981.09
2022-09-27T07:29:55.841Z,96996.78
2022-09-27T07:32:24.653Z,96995.13
2022-09-27T07:34:52.692Z,96996.69
2022-09-27T07:37:21.087Z,96990.38
2022-09-27T07:39:47.944Z,96989.88
2022-09-27T07:42:14.673Z,96997.50
2022-09-27T07:44:45.096Z,96992.91
2022-09-27T07:47:50.379Z,96995.97
2022-09-27T07:50:38.933Z,96995.88
2022-09-27T07:53:40.682Z,96998.47
2022-09-27T07:56:30.420Z,96999.00
2022-09-27T07:58:57.605Z,97004.09
2022-09-27T08:01:24.551Z,97003.31
2022-09-27T08:03:51.339Z,97008.78
2022-09-27T08:06:19.078Z,97004.88
2022-09-27T08:08:47.393Z,97008.81
2022-09-27T08:11:16.998Z,96996.88
2022-09-27T08:13:46.324Z,97000.97
2022-09-27T08:16:14.294Z,97002.78
2022-09-27T08:19:20.061Z,96996.66
2022-09-27T08:21:58.881Z,97000.69
2022-09-27T08:24:35.659Z,97005.00
2022-09-27T08:27:13.438Z,96997.13
2022-09-27T08:29:47.746Z,97004.09
2022-09-27T08:32:22.120Z,97000.53
2022-09-27T08:34:49.731Z,97001.09
2022-09-27T08:37:16.525Z,97012.06
2022-09-27T08:39:47.616Z,97013.06
2022-09-27T08:42:54.675Z,97017.25
2022-09-27T08:45:50.952Z,97014.09
2022-09-27T08:48:18.398Z,97016.56
2022-09-27T08:50:48.276Z,97021.50
2022-09-27T08:53:23.397Z,97025.84
2022-09-27T08:55:56.826Z,97027.19
2022-09-27T08:58:30.378Z,97018.31
2022-09-27T09:01:11.704Z,97034.41
2022-09-27T09:03:50.035Z,97017.09
2022-09-27T09:06:41.036Z,97020.75
2022-09-27T09:09:07.850Z,97015.16
2022-09-27T09:12:01.177Z,97013.78
2022-09-27T09:14:54.681Z,97020.44
2022-09-27T09:17:55.637Z,97019.53
2022-09-27T09:20:53.571Z,97019.03
2022-09-27T09:23:45.495Z,97022.59
2022-09-27T09:26:28.384Z,97023.03
2022-09-27T09:29:10.539Z,97024.88
2022-09-27T09:31:47.206Z,97021.47
2022-09-27T09:34:39.930Z,97028.47
2022-09-27T09:37:44.938Z,97026.88
2022-09-27T09:40:25.117Z,97027.78
2022-09-27T09:43:21.922Z,97021.38
2022-09-27T09:45:58.628Z,97024.56
2022-09-27T09:48:30.640Z,97015.31
2022-09-27T09:51:01.276Z,97014.78
2022-09-27T09:53:47.915Z,97005.16
2022-09-27T09:56:18.495Z,97002.22
2022-09-27T09:58:46.039Z,96998.16
2022-09-27T10:01:21.259Z,97006.00
2022-09-27T10:03:48.624Z,96995.63
2022-09-27T10:06:17.517Z,96977.88
2022-09-27T10:08:45.316Z,96978.03
2022-09-27T10:11:45.121Z,96976.72
2022-09-27T10:14:20.504Z,96955.75
2022-09-27T10:16:55.075Z,96934.75
2022-09-27T10:19:29.672Z,96913.91
2022-09-27T10:22:25.812Z,96914.91
2022-09-27T10:25:03.309Z,96916.28
2022-09-27T10:27:52.941Z,96915.47
2022-09-27T10:30:36.719Z,96925.41
2022-09-27T10:33:19.750Z,96917.34
2022-09-27T10:35:51.579Z,96919.00
2022-09-27T10:38:27.986Z,96901.44
2022-09-27T10:41:33.006Z,96897.78
2022-09-27T10:44:17.074Z,96902.75
2022-09-27T10:46:50.500Z,96903.16
2022-09-27T10:49:43.620Z,96902.88
2022-09-27T10:52:39.432Z,96884.81
2022-09-27T10:55:23.013Z,96869.13
2022-09-27T10:57:55.708Z,96879.06
2022-09-27T11:00:33.962Z,96871.63
2022-09-27T11:03:16.166Z,96864.69
2022-09-27T11:05:43.218Z,96858.00
2022-09-27T11:08:19.188Z,96871.22
2022-09-27T11:11:16.773Z,96875.28
2022-09-27T11:14:17.964Z,96889.22
2022-09-27T11:17:07.870Z,96902.16
2022-09-27T11:19:38.106Z,96912.81
2022-09-27T11:22:04.806Z,96914.25
2022-09-27T11:25:00.661Z,96914.97
2022-09-27T11:27:47.436Z,96915.81
2022-09-27T11:30:19.433Z,96928.28
2022-09-27T11:33:09.333Z,96926.69
2022-09-27T11:35:51.675Z,96935.56
2022-09-27T11:38:51.808Z,96939.53
2022-09-27T11:41:38.966Z,96941.25
2022-09-27T11:44:18.290Z,96945.31
2022-09-27T11:47:10.288Z,96945.84
2022-09-27T11:50:04.505Z,96939.44
2022-09-27T11:52:36.990Z,96945.94
2022-09-27T11:55:11.507Z,96938.88
2022-09-27T11:57:50.486Z,96946.44
2022-09-27T12:00:19.613Z,96938.56
2022-09-27T12:03:16.016Z,96933.03
2022-09-27T12:06:04.875Z,96928.28
2022-09-27T12:08:58.483Z,96904.94
2022-09-27T12:11:41.150Z,96892.16
2022-09-27T12:14:18.724Z,96885.56
2022-09-27T12:16:49.683Z,96890.25
2022-09-27T12:19:28.691Z,96883.91
2022-09-27T12:22:16.655Z,96883.25
2022-09-27T12:24:46.747Z,96877.25
2022-09-27T12:27:40.571Z,96874.00
2022-09-27T12:30:13.320Z,96868.69
2022-09-27T12:33:06.929Z,96856.91
2022-09-27T12:35:42.717Z,96859.44
2022-09-27T12:38:21.350Z,96860.03
2022-09-27T12:40:52.210Z,96858.38
2022-09-27T12:43:28.223Z,96871.97
2022-09-27T12:46:22.703Z,96863.03
2022-09-27T12:49:05.659Z,96871.19
2022-09-27T12:51:38.525Z,96866.31
2022-09-27T12:54:12.894Z,96879.75
2022-09-27T12:57:01.759Z,96881.94
2022-09-27T12:59:45.391Z,96878.69
2022-09-27T13:02:30.973Z,96888.09
2022-09-27T13:05:16.815Z,96905.03
2022-09-27T13:08:06.604Z,96925.56
2022-09-27T13:10:36.500Z,96920.84
2022-09-27T13:13:16.786Z,96930.22
2022-09-27T13:15:45.445Z,96926.25
2022-09-27T13:18:38.047Z,96923.47
2022-09-27T13:21:07.034Z,96928.25
2022-09-27T13:23:46.887Z,96924.28
2022-09-27T13:26:32.340Z,96919.34
2022-09-27T13:29:04.659Z,96920.94
2022-09-27T13:32:02.466Z,96935.81
2022-09-27T13:34:45.831Z,96941.63
2022-09-27T13:37:37.065Z,96944.19
2022-09-27T13:40:24.235Z,96950.22
2022-09-27T13:43:33.670Z,96953.22
2022-09-27T13:46:09.466Z,96956.91
2022-09-27T13:48:47.900Z,96955.91
2022-09-27T13:51:34.341Z,96947.63
2022-09-27T13:54:09.908Z,96947.31
2022-09-27T13:56:38.026Z,96943.78
2022-09-27T13:59:16.851Z,96941.59
2022-09-27T14:01:53.382Z,96929.75
2022-09-27T14:04:37.111Z,96930.50
2022-09-27T14:07:05.287Z,96938.31
2022-09-27T14:09:37.915Z,96929.22
2022-09-27T14:12:19.924Z,96938.47
2022-09-27T14:14:49.460Z,96936.94
2022-09-27T14:17:17.270Z,96933.25
2022-09-27T14:19:45.831Z,96927.66
2022-09-27T14:22:16.780Z,96924.91
2022-09-27T14:25:17.893Z,96920.56
2022-09-27T14:27:47.402Z,96927.53
2022-09-27T14:30:25.082Z,96930.41
2022-09-27T14:33:00.717Z,96936.53
2022-09-27T14:36:08.156Z,96928.66
2022-09-27T14:38:38.504Z,96935.81
2022-09-27T14:41:12.952Z,96939.94
2022-09-27T14:43:44.355Z,96951.13
2022-09-27T14:46:26.393Z,96953.97
2022-09-27T14:48:53.851Z,96957.78
2022-09-27T14:51:29.541Z,96951.06
2022-09-27T14:54:01.019Z,96946.75
2022-09-27T14:56:32.243Z,96950.44
2022-09-27T14:59:16.144Z,96944.41
2022-09-27T15:01:50.489Z,96938.34
2022-09-27T15:04:18.359Z,96944.41
2022-09-27T15:06:46.872Z,96954.91
2022-09-27T15:09:15.901Z,96952.91
2022-09-27T15:11:44.980Z,96949.78
2022-09-27T15:14:15.847Z,96948.84
2022-09-27T15:16:44.776Z,96938.84
2022-09-27T15:19:24.429Z,96939.22
2022-09-27T15:21:51.258Z,96940.09
2022-09-27T15:24:43.406Z,96937.19
2022-09-27T15:27:26.144Z,96930.69
2022-09-27T15:29:55.963Z,96933.16
2022-09-27T15:32:28.417Z,96931.38
2022-09-27T15:34:57.187Z,96938.19
2022-09-27T15:37:26.414Z,96942.63
2022-09-27T15:39:53.291Z,96940.84
2022-09-27T15:42:20.491Z,96940.28
2022-09-27T15:44:47.200Z,96940.00
2022-09-27T15:47:32.296Z,96930.97
2022-09-27T15:49:59.630Z,96935.63
2022-09-27T15:52:52.809Z,96937.41
2022-09-27T15:55:24.397Z,96934.78
2022-09-27T15:57:59.194Z,96933.91
2022-09-27T16:00:26.596Z,96925.66
2022-09-27T16:02:53.954Z,96930.78
2022-09-27T16:05:23.651Z,96943.31
2022-09-27T16:07:50.995Z,96941.59
2022-09-27T16:10:23.574Z,96944.34
2022-09-27T16:12:50.935Z,96947.66
2022-09-27T16:15:17.801Z,96947.84
2022-09-27T16:17:44.580Z,96952.22
2022-09-27T16:20:21.539Z,96960.22
2022-09-27T16:22:48.770Z,96960.41
2022-09-27T16:25:15.450Z,96967.88
2022-09-27T16:27:42.499Z,96962.66
2022-09-27T16:30:09.900Z,96970.53
2022-09-27T16:32:43.862Z,96971.56
2022-09-27T16:35:12.493Z,96974.97
2022-09-27T16:37:39.675Z,96969.31
2022-09-27T16:40:08.491Z,96976.03
2022-09-27T16:42:36.258Z,96977.84
2022-09-27T16:45:09.540Z,96981.53
2022-09-27T16:47:38.021Z,96976.94
2022-09-27T16:50:24.269Z,96974.53
2022-09-27T16:52:52.369Z,96975.41
2022-09-27T16:55:20.706Z,96977.28
2022-09-27T16:57:48.347Z,96965.13
2022-09-27T17:00:15.701Z,96966.25
2022-09-27T17:02:43.943Z,96959.81
2022-09-27T17:05:10.724Z,96951.63
2022-09-27T17:07:37.304Z,96954.44
2022-09-27T17:10:05.065Z,96949.28
2022-09-27T17:12:32.970Z,96955.19
2022-09-27T17:14:59.762Z,96954.34
2022-09-27T17:17:26.793Z,96954.00
2022-09-27T17:19:53.476Z,96967.38
2022-09-27T17:22:20.077Z,96958.53
2022-09-27T17:24:46.873Z,96964.78
2022-09-27T17:27:13.533Z,96962.91
2022-09-27T17:29:40.203Z,96962.56
2022-09-27T17:32:08.568Z,96967.38
2022-09-27T17:34:36.530Z,96976.69
2022-09-27T17:37:03.323Z,96977.69
2022-09-27T17:39:29.949Z,96968.63
2022-09-27T17:41:56.604Z,96976.00
2022-09-27T17:44:23.836Z,96977.16
2022-09-27T17:47:10.462Z,96971.34
2022-09-27T17:49:55.762Z,96983.81
2022-09-27T17:52:26.663Z,96979.91
2022-09-27T17:54:55.550Z,96980.72
2022-09-27T17:57:22.268Z,96976.38
2022-09-27T17:59:48.940Z,96976.19
2022-09-27T18:02:15.705Z,96977.31
2022-09-27T18:04:42.487Z,96984.47
2022-09-27T18:07:11.886Z,96981.84
2022-09-27T18:09:39.284Z,96982.69
2022-09-27T18:12:06.080Z,96977.91
2022-09-27T18:14:32.835Z,96980.88
2022-09-27T18:16:59.467Z,96975.38
2022-09-27T18:19:26.490Z,96969.97
2022-09-27T18:21:53.769Z,96967.13
2022-09-27T18:24:20.447Z,96968.03
2022-09-27T18:26:48.967Z,96970.00
2022-09-27T18:29:20.953Z,96962.25
2022-09-27T18:31:49.082Z,96958.84
2022-09-27T18:34:18.043Z,96949.03
2022-09-27T18:36:44.958Z,96952.06
2022-09-27T18:39:15.697Z,96941.16
2022-09-27T18:41:42.640Z,96947.09
2022-09-27T18:44:13.823Z,96942.25
2022-09-27T18:46:40.675Z,96938.03
2022-09-27T18:49:10.450Z,96939.44
2022-09-27T18:51:41.866Z,96941.75
2022-09-27T18:54:19.533Z,96933.56
2022-09-27T18:56:48.339Z,96929.31
2022-09-27T18:59:17.075Z,96936.91
2022-09-27T19:01:47.388Z,96932.31
2022-09-27T19:04:21.562Z,96929.56
2022-09-27T19:06:51.755Z,96929.03
2022-09-27T19:09:18.972Z,96932.22
2022-09-27T19:11:45.770Z,96923.56
2022-09-27T19:14:18.307Z,96920.84
2022-09-27T19:16:47.112Z,96923.09
2022-09-27T19:19:18.069Z,96922.63
2022-09-27T19:21:45.698Z,96924.19
2022-09-27T19:24:13.865Z,96935.47
2022-09-27T19:26:41.030Z,96943.59
2022-09-27T19:29:07.692Z,96935.75
2022-09-27T19:31:35.907Z,96938.25
2022-09-27T19:34:03.121Z,96941.59
2022-09-27T19:36:29.881Z,96935.88
2022-09-27T19:38:58.742Z,96940.97
2022-09-27T19:41:26.514Z,96937.22
2022-09-27T19:43:54.588Z,96926.66
2022-09-27T19:46:23.220Z,96937.72
2022-09-27T19:48:50.740Z,96933.88
2022-09-27T19:51:22.580Z,96931.31
2022-09-27T19:53:50.221Z,96930.63
2022-09-27T19:56:17.080Z,96929.25
2022-09-27T19:58:44.202Z,96925.41
2022-09-27T20:01:22.575Z,96922.94
2022-09-27T20:03:51.693Z,96917.63
2022-09-27T20:06:20.051Z,96920.09
2022-09-27T20:08:50.689Z,96913.19
2022-09-27T20:11:19.561Z,96911.47
2022-09-27T20:13:46.365Z,96903.91
2022-09-27T20:16:14.381Z,96903.44
2022-09-27T20:18:46.229Z,96907.81
2022-09-27T20:21:14.230Z,96898.66
2022-09-27T20:23:41.138Z,96891.41
2022-09-27T20:26:12.987Z,96891.56
2022-09-27T20:28:51.315Z,96878.66
2022-09-27T20:31:21.312Z,96873.31
2022-09-27T20:33:50.707Z,96869.56
2022-09-27T20:36:20.318Z,96864.34
2022-09-27T20:38:51.880Z,96865.38
2022-09-27T20:41:21.532Z,96856.56
2022-09-27T20:43:52.322Z,96847.69
2022-09-27T20:46:20.471Z,96841.97
2022-09-27T20:48:55.716Z,96845.44
2022-09-27T20:51:23.721Z,96846.19
2022-09-27T20:53:51.512Z,96838.19
2022-09-27T20:56:21.154Z,96829.38
2022-09-27T20:58:49.952Z,96832.09
2022-09-27T21:01:18.849Z,96829.25
2022-09-27T21:03:46.255Z,96827.59
2022-09-27T21:06:13.671Z,96822.94
2022-09-27T21:08:41.034Z,96823.69
2022-09-27T21:11:13.213Z,96819.53
2022-09-27T21:13:41.312Z,96804.28
2022-09-27T21:16:10.268Z,96803.88
2022-09-27T21:18:37.349Z,96795.16
2022-09-27T21:21:05.671Z,96792.25
2022-09-27T21:23:34.157Z,96786.88
2022-09-27T21:26:08.184Z,96785.59
2022-09-27T21:28:44.696Z,96776.28
2022-09-27T21:31:21.603Z,96780.47
2022-09-27T21:33:55.270Z,96774.94
2022-09-27T21:36:23.714Z,96773.63
2022-09-27T21:38:50.879Z,96769.63
2022-09-27T21:41:18.030Z,96770.22
2022-09-27T21:43:46.804Z,96761.94
2022-09-27T21:46:16.052Z,96762.00
2022-09-27T21:48:45.768Z,96763.09
2022-09-27T21:51:27.584Z,96755.44
2022-09-27T21:53:57.028Z,96757.16
2022-09-27T21:56:26.044Z,96762.25
2022-09-27T21:58:52.768Z,96759.47
2022-09-27T22:01:21.974Z,96755.34
2022-09-27T22:03:50.196Z,96745.25
2022-09-27T22:06:25.241Z,96733.47
2022-09-27T22:08:52.315Z,96733.63
2022-09-27T22:11:21.683Z,96725.34
2022-09-27T22:13:48.621Z,96732.09
2022-09-27T22:16:18.092Z,96718.91
2022-09-27T22:18:50.502Z,96706.19
2022-09-27T22:21:19.715Z,96713.22
2022-09-27T22:23:46.672Z,96707.06
2022-09-27T22:26:24.922Z,96701.16
2022-09-27T22:28:52.268Z,96692.69
2022-09-27T22:31:19.453Z,96693.91
2022-09-27T22:33:51.327Z,96690.22
2022-09-27T22:36:18.133Z,96694.25
2022-09-27T22:38:44.795Z,96683.75
2022-09-27T22:41:12.232Z,96683.56
2022-09-27T22:43:39.643Z,96685.28
2022-09-27T22:46:06.518Z,96691.25
2022-09-27T22:48:33.187Z,96671.75
2022-09-27T22:51:00.601Z,96667.75
2022-09-27T22:53:28.949Z,96661.41
2022-09-27T22:56:19.752Z,96665.28
2022-09-27T22:58:48.010Z,96650.13
2022-09-27T23:01:17.732Z,96651.31
2022-09-27T23:03:45.821Z,96640.53
2022-09-27T23:06:13.488Z,96651.03
2022-09-27T23:08:40.400Z,96633.59
2022-09-27T23:11:17.542Z,96632.41
2022-09-27T23:13:44.792Z,96642.19
2022-09-27T23:16:14.421Z,96630.09
2022-09-27T23:18:42.366Z,96629.59
2022-09-27T23:21:11.041Z,96620.97
2022-09-27T23:23:41.235Z,96628.13
2022-09-27T23:26:10.706Z,96624.75
2022-09-27T23:28:37.579Z,96610.13
2022-09-27T23:31:08.864Z,96591.16
2022-09-27T23:33:37.280Z,96600.00
2022-09-27T23:36:05.650Z,96606.25
2022-09-27T23:38:32.967Z,96595.78
2022-09-27T23:41:00.264Z,96591.03
2022-09-27T23:43:27.430Z,96595.09
2022-09-27T23:45:57.190Z,96594.31
2022-09-27T23:48:25.375Z,96584.25
2022-09-27T23:50:52.676Z,96585.56
2022-09-27T23:53:21.216Z,96579.16
2022-09-27T23:55:49.822Z,96587.53
2022-09-27T23:58:17.369Z,96582.22
